Algoma Mariner — CFN5517 — position and weather

sailwx.info

Track history (hours):
 
Tides and Currents Weather Stations Pressure Air Temp Water Temp Dewpoint Dewpoint Depression Visibility Wind Speed Wind Dir Waves Ship Positions

Algoma Mariner

Last reported at 2018-Feb-25 04:05 UTC. Time now 2018-Feb-25 05:57 UTC.
Position N 45°58' W 073°12'.

Length 225 m; draft 10.3 m.

Type: Cargo ship. MMSI: 316014050.

Date/timePositionNaut miles runAvg speedWind from/ knotsBaromVisibWave heightAir tempDewpointWater temp
2018-Feb-25 04:05N 45°58' W 073°12'114.8
2018-Feb-25 04:00N 45°57' W 073°12'714.0
2018-Feb-25 03:30N 45°51' W 073°16'1 2.0
2018-Feb-25 03:00N 45°50' W 073°17'0 0.0
2018-Feb-25 02:30N 45°50' W 073°17'0 0.0
2018-Feb-25 02:00N 45°50' W 073°17'0 0.0
2018-Feb-25 01:30N 45°50' W 073°17'0 0.0
2018-Feb-25 01:00N 45°50' W 073°17'0 0.0
2018-Feb-25 00:30N 45°50' W 073°17'0 0.0
2018-Feb-25 00:00N 45°50' W 073°17'0 0.0
2018-Feb-24 23:30N 45°50' W 073°17'0 0.0
2018-Feb-24 22:57N 45°50' W 073°17'0 0.0
2018-Feb-24 22:30N 45°50' W 073°17'0 0.0
2018-Feb-24 22:00N 45°50' W 073°17'0 0.0
2018-Feb-24 21:30N 45°50' W 073°17'0 0.0
2018-Feb-24 21:00N 45°50' W 073°17'0 0.0
2018-Feb-24 20:30N 45°50' W 073°17'0 0.0
2018-Feb-24 20:00N 45°50' W 073°17'0 0.0
2018-Feb-24 19:27N 45°50' W 073°17'0 0.0
2018-Feb-24 18:57N 45°50' W 073°17'0 0.0
2018-Feb-24 18:30N 45°50' W 073°17'0 0.0
2018-Feb-24 17:57N 45°50' W 073°17'0 0.0
2018-Feb-24 17:30N 45°50' W 073°17'0 0.0
2018-Feb-24 17:00N 45°50' W 073°17'0 0.0
2018-Feb-24 16:27N 45°50' W 073°17'0 0.0
2018-Feb-24 15:57N 45°50' W 073°17'0 0.3
2018-Feb-24 15:30N 45°50' W 073°17'1 2.6
2018-Feb-24 15:00N 45°51' W 073°16'4 7.8
2018-Feb-24 14:30N 45°54' W 073°13'4 8.0
2018-Feb-24 14:00N 45°58' W 073°12'4 8.8
2018-Feb-24 13:30N 46°03' W 073°10'93 8.8
2018-Feb-24 02:52N 46°49' W 071°12'3 7.6
2018-Feb-24 02:30N 46°51' W 071°09'  
2018-Feb-21 08:20N 46°50' W 071°08'3 8.0
2018-Feb-21 08:00N 46°49' W 071°12'9311.7
2018-Feb-21 00:01N 46°03' W 073°09'413.7
2018-Feb-20 23:43N 45°59' W 073°11'314.1
2018-Feb-20 23:30N 45°56' W 073°13'612.7
2018-Feb-20 23:00N 45°51' W 073°17'1 1.2
2018-Feb-20 22:29N 45°50' W 073°17'0 0.0
2018-Feb-20 21:59N 45°50' W 073°17'0 0.0
2018-Feb-20 21:29N 45°50' W 073°17'0 0.0
2018-Feb-20 20:59N 45°50' W 073°17'0 0.0
2018-Feb-20 20:05N 45°50' W 073°17'0 0.0
2018-Feb-20 19:59N 45°50' W 073°17'0 0.0
2018-Feb-20 19:14N 45°50' W 073°17'0 0.0
2018-Feb-20 18:59N 45°50' W 073°17'0 0.0
2018-Feb-20 18:29N 45°50' W 073°17'0 0.0
2018-Feb-20 17:56N 45°50' W 073°17'0 0.0
2018-Feb-20 17:29N 45°50' W 073°17'0 0.0
2018-Feb-20 16:56N 45°50' W 073°17'0 0.0
2018-Feb-20 16:26N 45°50' W 073°17'0 0.0
2018-Feb-20 15:59N 45°50' W 073°17'0 0.0
2018-Feb-20 15:29N 45°50' W 073°17'0 0.0
2018-Feb-20 14:56N 45°50' W 073°17'0 0.0
2018-Feb-20 14:23N 45°50' W 073°17'0 0.0
2018-Feb-20 13:56N 45°50' W 073°17'0 0.0
2018-Feb-20 13:29N 45°50' W 073°17'0 0.0
2018-Feb-20 12:59N 45°50' W 073°17'0 0.0
2018-Feb-20 12:29N 45°50' W 073°17'0 0.0
2018-Feb-20 12:00N 45°50' W 073°17'1 2.8
2018-Feb-20 11:30N 45°51' W 073°16'4 8.1
2018-Feb-20 11:00N 45°55' W 073°13'99 9.4
2018-Feb-20 00:30N 46°48' W 071°12'19112.3
2018-Feb-19 09:00N 49°06' W 067°54'143 4.0 130 / 13676.4 -2.5
2018-Feb-17 21:00N 47°24' W 070°24'4512.8 1018.010.8 -3.5
2018-Feb-17 17:29N 46°50' W 071°07'10112.0
2018-Feb-17 09:04N 45°58' W 073°12'214.2
2018-Feb-17 08:57N 45°56' W 073°13'613.4
2018-Feb-17 08:30N 45°51' W 073°17'1 1.3
2018-Feb-17 07:56N 45°50' W 073°17'0 0.0
2018-Feb-17 07:26N 45°50' W 073°17'0 0.0
2018-Feb-17 06:56N 45°50' W 073°17'0 0.0
2018-Feb-17 06:26N 45°50' W 073°17'0 0.0
2018-Feb-17 05:56N 45°50' W 073°17'0 0.0
2018-Feb-17 05:20N 45°50' W 073°17'0 0.0
2018-Feb-17 04:56N 45°50' W 073°17'0 0.0
2018-Feb-17 04:26N 45°50' W 073°17'0 0.0
2018-Feb-17 03:56N 45°50' W 073°17'0 0.0
2018-Feb-17 03:26N 45°50' W 073°17'0 0.0
2018-Feb-17 02:53N 45°50' W 073°17'0 0.0
2018-Feb-17 02:29N 45°50' W 073°17'0 0.0
2018-Feb-17 01:56N 45°50' W 073°17'0 0.0
2018-Feb-17 01:29N 45°50' W 073°17'0 0.0
2018-Feb-17 00:56N 45°50' W 073°17'0 0.0
2018-Feb-17 00:26N 45°50' W 073°17'0 0.0
2018-Feb-16 23:56N 45°50' W 073°17'0 0.0
2018-Feb-16 21:57N 45°50' W 073°17'0 0.2
2018-Feb-16 21:30N 45°50' W 073°17'2 3.6
2018-Feb-16 20:59N 45°52' W 073°16'10 8.7
2018-Feb-16 19:48N 46°01' W 073°10'95 9.2
2018-Feb-16 09:34N 46°49' W 071°12'0 8.0
2018-Feb-16 09:30N 46°49' W 071°11'64 5.6
2018-Feb-15 22:00N 47°36' W 070°06'   190 / 4996.0 2.2 1.2
Track history (hours):
 
Tides and Currents Weather Stations Pressure Air Temp Water Temp Dewpoint Dewpoint Depression Visibility Wind Speed Wind Dir Waves Ship Positions

Algoma Mariner

Last reported at 2018-Feb-25 04:05 UTC. Time now 2018-Feb-25 05:57 UTC.
Position N 45°58' W 073°12'.

Length 225 m; draft 10.3 m.

Type: Cargo ship. MMSI: 316014050.

Date/timePositionNaut miles runAvg speedWind from/ knotsBaromVisibWave heightAir tempDewpointWater temp
2018-Feb-25 04:05N 45°58' W 073°12'114.8
2018-Feb-25 04:00N 45°57' W 073°12'714.0
2018-Feb-25 03:30N 45°51' W 073°16'1 2.0
2018-Feb-25 03:00N 45°50' W 073°17'0 0.0
2018-Feb-25 02:30N 45°50' W 073°17'0 0.0
2018-Feb-25 02:00N 45°50' W 073°17'0 0.0
2018-Feb-25 01:30N 45°50' W 073°17'0 0.0
2018-Feb-25 01:00N 45°50' W 073°17'0 0.0
2018-Feb-25 00:30N 45°50' W 073°17'0 0.0
2018-Feb-25 00:00N 45°50' W 073°17'0 0.0
2018-Feb-24 23:30N 45°50' W 073°17'0 0.0
2018-Feb-24 22:57N 45°50' W 073°17'0 0.0
2018-Feb-24 22:30N 45°50' W 073°17'0 0.0
2018-Feb-24 22:00N 45°50' W 073°17'0 0.0
2018-Feb-24 21:30N 45°50' W 073°17'0 0.0
2018-Feb-24 21:00N 45°50' W 073°17'0 0.0
2018-Feb-24 20:30N 45°50' W 073°17'0 0.0
2018-Feb-24 20:00N 45°50' W 073°17'0 0.0
2018-Feb-24 19:27N 45°50' W 073°17'0 0.0
2018-Feb-24 18:57N 45°50' W 073°17'0 0.0
2018-Feb-24 18:30N 45°50' W 073°17'0 0.0
2018-Feb-24 17:57N 45°50' W 073°17'0 0.0
2018-Feb-24 17:30N 45°50' W 073°17'0 0.0
2018-Feb-24 17:00N 45°50' W 073°17'0 0.0
2018-Feb-24 16:27N 45°50' W 073°17'0 0.0
2018-Feb-24 15:57N 45°50' W 073°17'0 0.3
2018-Feb-24 15:30N 45°50' W 073°17'1 2.6
2018-Feb-24 15:00N 45°51' W 073°16'4 7.8
2018-Feb-24 14:30N 45°54' W 073°13'4 8.0
2018-Feb-24 14:00N 45°58' W 073°12'4 8.8
2018-Feb-24 13:30N 46°03' W 073°10'93 8.8
2018-Feb-24 02:52N 46°49' W 071°12'3 7.6
2018-Feb-24 02:30N 46°51' W 071°09'  
2018-Feb-21 08:20N 46°50' W 071°08'3 8.0
2018-Feb-21 08:00N 46°49' W 071°12'9311.7
2018-Feb-21 00:01N 46°03' W 073°09'413.7
2018-Feb-20 23:43N 45°59' W 073°11'314.1
2018-Feb-20 23:30N 45°56' W 073°13'612.7
2018-Feb-20 23:00N 45°51' W 073°17'1 1.2
2018-Feb-20 22:29N 45°50' W 073°17'0 0.0
2018-Feb-20 21:59N 45°50' W 073°17'0 0.0
2018-Feb-20 21:29N 45°50' W 073°17'0 0.0
2018-Feb-20 20:59N 45°50' W 073°17'0 0.0
2018-Feb-20 20:05N 45°50' W 073°17'0 0.0
2018-Feb-20 19:59N 45°50' W 073°17'0 0.0
2018-Feb-20 19:14N 45°50' W 073°17'0 0.0
2018-Feb-20 18:59N 45°50' W 073°17'0 0.0
2018-Feb-20 18:29N 45°50' W 073°17'0 0.0
2018-Feb-20 17:56N 45°50' W 073°17'0 0.0
2018-Feb-20 17:29N 45°50' W 073°17'0 0.0
2018-Feb-20 16:56N 45°50' W 073°17'0 0.0
2018-Feb-20 16:26N 45°50' W 073°17'0 0.0
2018-Feb-20 15:59N 45°50' W 073°17'0 0.0
2018-Feb-20 15:29N 45°50' W 073°17'0 0.0
2018-Feb-20 14:56N 45°50' W 073°17'0 0.0
2018-Feb-20 14:23N 45°50' W 073°17'0 0.0
2018-Feb-20 13:56N 45°50' W 073°17'0 0.0
2018-Feb-20 13:29N 45°50' W 073°17'0 0.0
2018-Feb-20 12:59N 45°50' W 073°17'0 0.0
2018-Feb-20 12:29N 45°50' W 073°17'0 0.0
2018-Feb-20 12:00N 45°50' W 073°17'1 2.8
2018-Feb-20 11:30N 45°51' W 073°16'4 8.1
2018-Feb-20 11:00N 45°55' W 073°13'99 9.4
2018-Feb-20 00:30N 46°48' W 071°12'19112.3
2018-Feb-19 09:00N 49°06' W 067°54'143 4.0 130 / 13676.4 -2.5
2018-Feb-17 21:00N 47°24' W 070°24'4512.8 1018.010.8 -3.5
2018-Feb-17 17:29N 46°50' W 071°07'10112.0
2018-Feb-17 09:04N 45°58' W 073°12'214.2
2018-Feb-17 08:57N 45°56' W 073°13'613.4
2018-Feb-17 08:30N 45°51' W 073°17'1 1.3
2018-Feb-17 07:56N 45°50' W 073°17'0 0.0
2018-Feb-17 07:26N 45°50' W 073°17'0 0.0
2018-Feb-17 06:56N 45°50' W 073°17'0 0.0
2018-Feb-17 06:26N 45°50' W 073°17'0 0.0
2018-Feb-17 05:56N 45°50' W 073°17'0 0.0
2018-Feb-17 05:20N 45°50' W 073°17'0 0.0
2018-Feb-17 04:56N 45°50' W 073°17'0 0.0
2018-Feb-17 04:26N 45°50' W 073°17'0 0.0
2018-Feb-17 03:56N 45°50' W 073°17'0 0.0
2018-Feb-17 03:26N 45°50' W 073°17'0 0.0
2018-Feb-17 02:53N 45°50' W 073°17'0 0.0
2018-Feb-17 02:29N 45°50' W 073°17'0 0.0
2018-Feb-17 01:56N 45°50' W 073°17'0 0.0
2018-Feb-17 01:29N 45°50' W 073°17'0 0.0
2018-Feb-17 00:56N 45°50' W 073°17'0 0.0
2018-Feb-17 00:26N 45°50' W 073°17'0 0.0
2018-Feb-16 23:56N 45°50' W 073°17'0 0.0
2018-Feb-16 21:57N 45°50' W 073°17'0 0.2
2018-Feb-16 21:30N 45°50' W 073°17'2 3.6
2018-Feb-16 20:59N 45°52' W 073°16'10 8.7
2018-Feb-16 19:48N 46°01' W 073°10'95 9.2
2018-Feb-16 09:34N 46°49' W 071°12'0 8.0
2018-Feb-16 09:30N 46°49' W 071°11'64 5.6
2018-Feb-15 22:00N 47°36' W 070°06'   190 / 4996.0 2.2 1.2

Dump ship's entire track history